createdAt,value
2023-03-30T00:02:10.516Z,98008.22
2023-03-30T00:04:38.508Z,98010.66
2023-03-30T00:07:06.221Z,98006.78
2023-03-30T00:09:43.495Z,98004.94
2023-03-30T00:12:11.343Z,98007.31
2023-03-30T00:14:41.434Z,98003.28
2023-03-30T00:17:09.585Z,98016.03
2023-03-30T00:19:37.632Z,98017.88
2023-03-30T00:22:06.002Z,98005.41
2023-03-30T00:24:35.848Z,98007.38
2023-03-30T00:27:04.110Z,98016.41
2023-03-30T00:29:34.767Z,98012.59
2023-03-30T00:32:04.313Z,98008.69
2023-03-30T00:34:32.172Z,98003.66
2023-03-30T00:37:01.266Z,98006.41
2023-03-30T00:39:29.024Z,98012.31
2023-03-30T00:41:56.745Z,97998.69
2023-03-30T00:45:02.219Z,98007.38
2023-03-30T00:47:29.964Z,98000.19
2023-03-30T00:49:58.886Z,98000.16
2023-03-30T00:52:29.081Z,98006.34
2023-03-30T00:54:56.884Z,98002.13
2023-03-30T00:57:25.046Z,98011.94
2023-03-30T00:59:52.917Z,98008.19
2023-03-30T01:02:21.769Z,98009.44
2023-03-30T01:04:51.596Z,98009.91
2023-03-30T01:07:19.489Z,98005.41
2023-03-30T01:09:48.172Z,98006.91
2023-03-30T01:12:16.270Z,98003.41
2023-03-30T01:14:43.971Z,98009.47
2023-03-30T01:17:42.202Z,97998.72
2023-03-30T01:20:16.697Z,98011.34
2023-03-30T01:22:59.939Z,98007.16
2023-03-30T01:25:36.796Z,98001.19
2023-03-30T01:28:13.665Z,98002.44
2023-03-30T01:30:41.459Z,97995.19
2023-03-30T01:33:46.760Z,97997.69
2023-03-30T01:36:35.914Z,97996.78
2023-03-30T01:39:09.618Z,98004.59
2023-03-30T01:42:10.577Z,98009.69
2023-03-30T01:44:41.643Z,98006.78
2023-03-30T01:47:38.372Z,98008.97
2023-03-30T01:50:11.769Z,98012.88
2023-03-30T01:52:42.759Z,98014.41
2023-03-30T01:55:13.920Z,98018.09
2023-03-30T01:57:58.589Z,98018.88
2023-03-30T02:00:28.654Z,98014.47
2023-03-30T02:03:01.702Z,98016.16
2023-03-30T02:05:31.172Z,98014.47
2023-03-30T02:08:02.106Z,98015.03
2023-03-30T02:10:33.197Z,98011.63
2023-03-30T02:13:02.006Z,98013.31
2023-03-30T02:15:35.042Z,98019.38
2023-03-30T02:18:03.345Z,98024.41
2023-03-30T02:20:33.181Z,98013.09
2023-03-30T02:23:01.514Z,98022.59
2023-03-30T02:25:30.760Z,98013.34
2023-03-30T02:27:58.587Z,98019.19
2023-03-30T02:30:30.011Z,98023.44
2023-03-30T02:33:00.189Z,98028.69
2023-03-30T02:35:53.856Z,98019.66
2023-03-30T02:38:48.967Z,98025.69
2023-03-30T02:41:34.216Z,98021.31
2023-03-30T02:44:35.179Z,98022.41
2023-03-30T02:47:05.527Z,98026.75
2023-03-30T02:49:35.832Z,98017.22
2023-03-30T02:52:34.719Z,98023.91
2023-03-30T02:55:18.868Z,98011.66
2023-03-30T02:58:48.091Z,98018.13
2023-03-30T03:01:20.157Z,98022.16
2023-03-30T03:03:58.372Z,98018.66
2023-03-30T03:06:28.520Z,98017.13
2023-03-30T03:08:57.077Z,98027.41
2023-03-30T03:11:32.208Z,98007.34
2023-03-30T03:14:02.499Z,98012.91
2023-03-30T03:16:32.728Z,98023.06
2023-03-30T03:19:27.730Z,98030.66
2023-03-30T03:21:57.331Z,98035.56
2023-03-30T03:24:26.409Z,98033.63
2023-03-30T03:27:12.426Z,98040.16
2023-03-30T03:30:00.521Z,98039.94
2023-03-30T03:32:28.849Z,98035.44
2023-03-30T03:34:56.609Z,98033.63
2023-03-30T03:37:26.119Z,98036.22
2023-03-30T03:39:55.469Z,98045.00
2023-03-30T03:42:23.311Z,98037.38
2023-03-30T03:45:02.169Z,98046.63
2023-03-30T03:47:32.157Z,98045.44
2023-03-30T03:50:03.561Z,98039.53
2023-03-30T03:52:31.314Z,98044.41
2023-03-30T03:54:59.579Z,98050.22
2023-03-30T03:57:27.940Z,98043.81
2023-03-30T03:59:58.065Z,98042.88
2023-03-30T04:02:26.814Z,98039.28
2023-03-30T04:04:54.739Z,98039.81
2023-03-30T04:07:25.540Z,98042.13
2023-03-30T04:09:53.387Z,98027.91
2023-03-30T04:12:38.975Z,98029.97
2023-03-30T04:15:27.294Z,98039.97
2023-03-30T04:18:33.650Z,98037.66
2023-03-30T04:21:29.743Z,98036.59
2023-03-30T04:24:12.881Z,98038.94
2023-03-30T04:26:58.934Z,98045.28
2023-03-30T04:30:02.128Z,98052.84
2023-03-30T04:33:05.198Z,98041.13
2023-03-30T04:35:41.985Z,98054.53
2023-03-30T04:38:33.418Z,98055.06
2023-03-30T04:41:18.350Z,98064.81
2023-03-30T04:43:46.549Z,98058.50
2023-03-30T04:46:37.118Z,98063.59
2023-03-30T04:49:07.799Z,98059.66
2023-03-30T04:52:01.587Z,98065.31
2023-03-30T04:54:36.069Z,98072.16
2023-03-30T04:57:30.932Z,98083.69
2023-03-30T05:00:24.978Z,98075.00
2023-03-30T05:03:13.274Z,98080.16
2023-03-30T05:05:59.359Z,98071.78
2023-03-30T05:09:05.527Z,98075.63
2023-03-30T05:12:03.770Z,98074.53
2023-03-30T05:15:00.435Z,98080.44
2023-03-30T05:17:28.282Z,98076.06
2023-03-30T05:20:02.277Z,98070.03
2023-03-30T05:22:42.586Z,98081.34
2023-03-30T05:25:27.602Z,98086.44
2023-03-30T05:28:17.219Z,98085.47
2023-03-30T05:31:08.629Z,98071.97
2023-03-30T05:33:58.859Z,98074.06
2023-03-30T05:36:35.464Z,98078.22
2023-03-30T05:39:23.499Z,98090.94
2023-03-30T05:42:11.881Z,98085.13
2023-03-30T05:44:51.021Z,98087.97
2023-03-30T05:47:19.577Z,98097.56
2023-03-30T05:50:17.015Z,98094.91
2023-03-30T05:52:52.719Z,98097.44
2023-03-30T05:55:28.930Z,98102.06
2023-03-30T05:58:11.798Z,98100.88
2023-03-30T06:00:51.881Z,98106.31
2023-03-30T06:03:31.126Z,98103.41
2023-03-30T06:05:59.497Z,98107.41
2023-03-30T06:08:27.792Z,98104.53
2023-03-30T06:11:01.257Z,98101.63
2023-03-30T06:13:35.588Z,98101.03
2023-03-30T06:16:03.902Z,98108.19
2023-03-30T06:18:32.500Z,98103.03
2023-03-30T06:21:13.186Z,98109.53
2023-03-30T06:24:04.849Z,98106.28
2023-03-30T06:26:35.045Z,98115.69
2023-03-30T06:29:04.626Z,98116.63
2023-03-30T06:31:34.149Z,98119.53
2023-03-30T06:34:20.636Z,98113.81
2023-03-30T06:36:48.517Z,98116.66
2023-03-30T06:39:18.835Z,98111.59
2023-03-30T06:41:46.987Z,98123.41
2023-03-30T06:44:37.927Z,98112.56
2023-03-30T06:47:13.097Z,98109.03
2023-03-30T06:49:41.919Z,98110.00
2023-03-30T06:52:41.885Z,98130.03
2023-03-30T06:55:09.727Z,98124.69
2023-03-30T06:57:38.069Z,98127.78
2023-03-30T07:00:15.284Z,98124.03
2023-03-30T07:02:44.601Z,98125.00
2023-03-30T07:05:28.786Z,98123.72
2023-03-30T07:08:08.336Z,98131.41
2023-03-30T07:10:40.215Z,98131.53
2023-03-30T07:13:09.481Z,98121.47
2023-03-30T07:15:40.887Z,98119.03
2023-03-30T07:18:10.015Z,98113.69
2023-03-30T07:20:37.820Z,98125.56
2023-03-30T07:23:12.203Z,98123.56
2023-03-30T07:25:42.067Z,98116.22
2023-03-30T07:28:31.791Z,98109.22
2023-03-30T07:31:11.207Z,98110.47
2023-03-30T07:33:42.194Z,98110.44
2023-03-30T07:36:13.719Z,98107.47
2023-03-30T07:38:41.700Z,98098.88
2023-03-30T07:41:12.479Z,98098.03
2023-03-30T07:43:40.888Z,98096.72
2023-03-30T07:46:09.809Z,98102.19
2023-03-30T07:48:40.565Z,98095.28
2023-03-30T07:51:13.987Z,98098.28
2023-03-30T07:53:50.742Z,98096.88
2023-03-30T07:56:25.135Z,98106.72
2023-03-30T07:58:55.815Z,98092.13
2023-03-30T08:01:29.353Z,98094.19
2023-03-30T08:04:27.944Z,98091.19
2023-03-30T08:06:55.875Z,98089.59
2023-03-30T08:09:26.000Z,98083.91
2023-03-30T08:11:53.762Z,98083.59
2023-03-30T08:14:23.744Z,98083.06
2023-03-30T08:16:51.995Z,98072.69
2023-03-30T08:19:21.642Z,98069.69
2023-03-30T08:21:51.105Z,98075.78
2023-03-30T08:24:19.850Z,98068.97
2023-03-30T08:26:47.644Z,98058.44
2023-03-30T08:29:17.118Z,98049.94
2023-03-30T08:31:45.681Z,98049.28
2023-03-30T08:34:13.636Z,98053.56
2023-03-30T08:36:41.483Z,98045.22
2023-03-30T08:39:10.743Z,98039.03
2023-03-30T08:42:02.739Z,98038.25
2023-03-30T08:44:37.464Z,98040.53
2023-03-30T08:47:09.330Z,98035.22
2023-03-30T08:49:43.419Z,98029.53
2023-03-30T08:52:17.696Z,98029.91
2023-03-30T08:54:45.943Z,98034.06
2023-03-30T08:57:35.412Z,98035.94
2023-03-30T09:00:32.655Z,98032.22
2023-03-30T09:03:10.795Z,98039.47
2023-03-30T09:05:44.242Z,98033.53
2023-03-30T09:08:24.197Z,98026.78
2023-03-30T09:11:02.554Z,98017.09
2023-03-30T09:13:35.111Z,98013.97
2023-03-30T09:16:05.151Z,98012.66
2023-03-30T09:18:34.995Z,98004.25
2023-03-30T09:21:06.454Z,97996.91
2023-03-30T09:23:36.165Z,97992.84
2023-03-30T09:26:07.161Z,97990.56
2023-03-30T09:28:34.957Z,97986.47
2023-03-30T09:31:05.289Z,97990.00
2023-03-30T09:33:45.315Z,97976.06
2023-03-30T09:36:39.590Z,97975.59
2023-03-30T09:39:11.783Z,97965.50
2023-03-30T09:42:17.211Z,97973.00
2023-03-30T09:45:07.258Z,97957.13
2023-03-30T09:47:36.830Z,97952.91
2023-03-30T09:50:13.790Z,97958.63
2023-03-30T09:52:41.713Z,97945.88
2023-03-30T09:55:21.654Z,97939.84
2023-03-30T09:57:53.585Z,97945.47
2023-03-30T10:00:32.787Z,97941.78
2023-03-30T10:03:02.773Z,97941.16
2023-03-30T10:05:32.811Z,97941.50
2023-03-30T10:08:05.997Z,97936.56
2023-03-30T10:10:38.194Z,97943.19
2023-03-30T10:13:16.789Z,97929.69
2023-03-30T10:15:46.236Z,97924.44
2023-03-30T10:18:45.611Z,97934.56
2023-03-30T10:21:13.288Z,97920.97
2023-03-30T10:23:45.050Z,97921.44
2023-03-30T10:26:20.564Z,97910.63
2023-03-30T10:28:55.911Z,97908.31
2023-03-30T10:31:25.650Z,97909.44
2023-03-30T10:33:57.696Z,97913.28
2023-03-30T10:36:43.695Z,97905.44
2023-03-30T10:39:14.044Z,97894.75
2023-03-30T10:41:42.086Z,97898.31
2023-03-30T10:44:37.138Z,97895.00
2023-03-30T10:47:31.383Z,97891.06
2023-03-30T10:50:35.786Z,97886.28
2023-03-30T10:53:15.684Z,97876.47
2023-03-30T10:55:51.283Z,97860.19
2023-03-30T10:58:33.050Z,97868.13
2023-03-30T11:01:20.560Z,97865.75
2023-03-30T11:03:52.410Z,97851.09
2023-03-30T11:06:38.642Z,97847.81
2023-03-30T11:09:09.623Z,97852.31
2023-03-30T11:11:41.278Z,97840.38
2023-03-30T11:14:13.385Z,97838.41
2023-03-30T11:16:57.683Z,97840.84
2023-03-30T11:19:31.099Z,97833.97
2023-03-30T11:22:36.225Z,97837.22
2023-03-30T11:25:15.105Z,97831.66
2023-03-30T11:28:07.268Z,97818.22
2023-03-30T11:30:35.256Z,97814.84
2023-03-30T11:33:29.302Z,97820.44
2023-03-30T11:36:24.726Z,97819.72
2023-03-30T11:38:57.360Z,97818.44
2023-03-30T11:41:32.069Z,97822.63
2023-03-30T11:44:00.688Z,97804.44
2023-03-30T11:47:00.208Z,97807.91
2023-03-30T11:49:40.447Z,97808.25
2023-03-30T11:52:35.902Z,97803.28
2023-03-30T11:55:24.038Z,97791.44
2023-03-30T11:58:21.434Z,97786.03
2023-03-30T12:00:51.840Z,97784.56
2023-03-30T12:03:40.038Z,97784.47
2023-03-30T12:06:31.256Z,97780.53
2023-03-30T12:09:01.880Z,97779.44
2023-03-30T12:11:29.562Z,97765.88
2023-03-30T12:13:57.385Z,97766.69
2023-03-30T12:16:39.753Z,97760.94
2023-03-30T12:19:24.909Z,97762.91
2023-03-30T12:22:26.367Z,97748.78
2023-03-30T12:25:27.975Z,97747.44
2023-03-30T12:27:58.685Z,97747.25
2023-03-30T12:30:29.186Z,97741.38
2023-03-30T12:33:03.731Z,97739.84
2023-03-30T12:35:50.131Z,97741.16
2023-03-30T12:38:23.850Z,97727.13
2023-03-30T12:41:14.547Z,97719.59
2023-03-30T12:43:55.576Z,97716.19
2023-03-30T12:46:28.587Z,97712.66
2023-03-30T12:49:19.508Z,97709.31
2023-03-30T12:51:58.838Z,97708.56
2023-03-30T12:54:29.316Z,97703.22
2023-03-30T12:57:22.668Z,97695.19
2023-03-30T13:00:08.038Z,97689.41
2023-03-30T13:02:47.424Z,97694.13
2023-03-30T13:05:25.319Z,97680.28
2023-03-30T13:07:54.267Z,97675.19
2023-03-30T13:10:31.133Z,97675.91
2023-03-30T13:13:04.154Z,97679.44
2023-03-30T13:15:49.254Z,97670.25
2023-03-30T13:18:16.896Z,97655.44
2023-03-30T13:20:47.284Z,97656.72
2023-03-30T13:23:15.929Z,97642.50
2023-03-30T13:26:03.261Z,97648.44
2023-03-30T13:28:45.858Z,97636.81
2023-03-30T13:31:45.550Z,97635.09
2023-03-30T13:34:16.704Z,97630.34
2023-03-30T13:36:57.300Z,97624.88
2023-03-30T13:39:34.720Z,97620.13
2023-03-30T13:42:18.548Z,97627.59
2023-03-30T13:45:11.429Z,97623.44
2023-03-30T13:48:18.092Z,97621.13
2023-03-30T13:50:55.872Z,97621.50
2023-03-30T13:53:28.767Z,97623.25
2023-03-30T13:55:56.987Z,97626.66
2023-03-30T13:58:29.875Z,97624.06
2023-03-30T14:01:23.227Z,97614.66
2023-03-30T14:03:55.998Z,97612.00
2023-03-30T14:06:26.484Z,97611.78
2023-03-30T14:09:06.343Z,97613.28
2023-03-30T14:11:44.621Z,97612.31
2023-03-30T14:14:31.364Z,97606.50
2023-03-30T14:17:02.943Z,97598.88
2023-03-30T14:19:35.252Z,97603.94
2023-03-30T14:22:12.057Z,97606.56
2023-03-30T14:24:39.837Z,97599.78
2023-03-30T14:27:12.766Z,97597.41
2023-03-30T14:29:48.796Z,97600.94
2023-03-30T14:32:19.082Z,97603.25
2023-03-30T14:34:51.361Z,97594.41
2023-03-30T14:37:21.115Z,97591.38
2023-03-30T14:39:55.884Z,97589.28
2023-03-30T14:42:34.038Z,97584.25
2023-03-30T14:45:03.525Z,97574.06
2023-03-30T14:47:31.530Z,97574.94
2023-03-30T14:50:01.173Z,97567.13
2023-03-30T14:52:47.087Z,97570.25
2023-03-30T14:55:22.497Z,97563.88
2023-03-30T14:57:50.223Z,97562.06
2023-03-30T15:00:22.669Z,97564.72
2023-03-30T15:03:00.198Z,97564.81
2023-03-30T15:05:34.353Z,97563.66
2023-03-30T15:08:04.004Z,97562.72
2023-03-30T15:10:43.308Z,97556.88
2023-03-30T15:13:13.200Z,97558.47
2023-03-30T15:15:41.207Z,97547.19
2023-03-30T15:18:09.812Z,97548.22
2023-03-30T15:20:37.598Z,97544.03
2023-03-30T15:23:05.337Z,97544.53
2023-03-30T15:25:34.165Z,97550.13
2023-03-30T15:28:04.688Z,97541.25
2023-03-30T15:30:38.839Z,97535.59
2023-03-30T15:33:08.162Z,97532.47
2023-03-30T15:35:36.821Z,97530.84
2023-03-30T15:38:13.953Z,97519.94
2023-03-30T15:40:45.864Z,97529.91
2023-03-30T15:43:30.176Z,97518.44
2023-03-30T15:46:08.409Z,97517.06
2023-03-30T15:48:36.150Z,97511.09
2023-03-30T15:51:13.620Z,97508.59
2023-03-30T15:53:52.622Z,97496.25
2023-03-30T15:56:38.250Z,97493.88
2023-03-30T15:59:09.828Z,97503.03
2023-03-30T16:01:54.639Z,97497.09
2023-03-30T16:04:23.963Z,97498.75
2023-03-30T16:06:52.831Z,97506.28
2023-03-30T16:09:20.927Z,97486.41
2023-03-30T16:11:49.064Z,97492.44
2023-03-30T16:14:20.526Z,97502.97
2023-03-30T16:16:48.506Z,97507.78
2023-03-30T16:19:18.052Z,97501.16
2023-03-30T16:21:47.213Z,97504.34
2023-03-30T16:24:14.904Z,97497.31
2023-03-30T16:26:44.266Z,97493.41
2023-03-30T16:29:21.468Z,97499.69
2023-03-30T16:31:50.263Z,97502.69
2023-03-30T16:34:18.332Z,97494.75
2023-03-30T16:36:46.291Z,97503.56
2023-03-30T16:39:24.290Z,97506.94
2023-03-30T16:41:52.405Z,97508.66
2023-03-30T16:44:22.344Z,97509.09
2023-03-30T16:46:50.218Z,97506.44
2023-03-30T16:49:22.737Z,97503.59
2023-03-30T16:51:51.488Z,97503.47
2023-03-30T16:54:30.354Z,97498.63
2023-03-30T16:57:00.397Z,97496.91
2023-03-30T16:59:30.327Z,97503.50
2023-03-30T17:01:58.933Z,97519.75
2023-03-30T17:04:26.832Z,97510.44
2023-03-30T17:06:55.099Z,97519.56
2023-03-30T17:09:24.323Z,97517.38
2023-03-30T17:11:52.178Z,97518.16
2023-03-30T17:14:23.279Z,97517.16
2023-03-30T17:16:51.183Z,97524.63
2023-03-30T17:19:20.725Z,97510.50
2023-03-30T17:21:48.493Z,97508.91
2023-03-30T17:24:17.029Z,97494.78
2023-03-30T17:26:45.491Z,97506.00
2023-03-30T17:29:13.492Z,97502.28
2023-03-30T17:31:45.576Z,97491.75
2023-03-30T17:34:14.667Z,97500.69
2023-03-30T17:36:42.804Z,97495.44
2023-03-30T17:39:14.155Z,97499.06
2023-03-30T17:41:42.281Z,97492.66
2023-03-30T17:44:11.238Z,97509.03
2023-03-30T17:46:43.562Z,97505.41
2023-03-30T17:49:16.556Z,97494.13
2023-03-30T17:51:44.362Z,97486.47
2023-03-30T17:54:12.835Z,97498.50
2023-03-30T17:56:40.656Z,97488.09
2023-03-30T17:59:11.695Z,97486.44
2023-03-30T18:01:40.728Z,97479.47
2023-03-30T18:04:09.640Z,97481.28
2023-03-30T18:06:37.503Z,97478.13
2023-03-30T18:09:10.327Z,97477.34
2023-03-30T18:11:38.329Z,97478.78
2023-03-30T18:14:06.310Z,97476.53
2023-03-30T18:16:39.286Z,97478.56
2023-03-30T18:19:11.225Z,97474.47
2023-03-30T18:21:39.092Z,97475.88
2023-03-30T18:24:07.954Z,97471.25
2023-03-30T18:26:39.662Z,97463.53
2023-03-30T18:29:19.971Z,97462.38
2023-03-30T18:31:48.414Z,97460.59
2023-03-30T18:34:17.217Z,97470.94
2023-03-30T18:36:46.161Z,97464.75
2023-03-30T18:39:21.580Z,97458.06
2023-03-30T18:41:49.739Z,97461.84
2023-03-30T18:44:17.875Z,97459.16
2023-03-30T18:46:47.178Z,97452.69
2023-03-30T18:49:15.073Z,97447.97
2023-03-30T18:51:42.972Z,97454.19
2023-03-30T18:54:11.872Z,97449.94
2023-03-30T18:56:40.031Z,97449.00
2023-03-30T18:59:10.144Z,97439.53
2023-03-30T19:01:40.308Z,97441.38
2023-03-30T19:04:08.503Z,97445.09
2023-03-30T19:06:36.352Z,97443.56
2023-03-30T19:09:04.136Z,97437.84
2023-03-30T19:11:33.615Z,97434.41
2023-03-30T19:14:03.225Z,97432.28
2023-03-30T19:16:30.975Z,97432.44
2023-03-30T19:18:58.768Z,97426.44
2023-03-30T19:21:27.174Z,97430.31
2023-03-30T19:23:56.503Z,97437.03
2023-03-30T19:26:26.011Z,97438.19
2023-03-30T19:28:53.833Z,97436.03
2023-03-30T19:31:22.331Z,97438.38
2023-03-30T19:33:50.147Z,97434.06
2023-03-30T19:36:18.723Z,97431.03
2023-03-30T19:38:46.588Z,97429.84
2023-03-30T19:41:14.726Z,97427.03
2023-03-30T19:43:45.575Z,97429.03
2023-03-30T19:46:13.308Z,97415.84
2023-03-30T19:48:43.279Z,97419.13
2023-03-30T19:51:12.137Z,97426.19
2023-03-30T19:53:39.898Z,97419.31
2023-03-30T19:56:11.132Z,97424.09
2023-03-30T19:58:39.190Z,97415.44
2023-03-30T20:01:08.015Z,97413.16
2023-03-30T20:03:35.782Z,97403.34
2023-03-30T20:06:03.569Z,97406.78
2023-03-30T20:08:33.621Z,97406.91
2023-03-30T20:11:01.406Z,97416.47
2023-03-30T20:13:29.142Z,97408.56
2023-03-30T20:15:56.968Z,97402.00
2023-03-30T20:18:24.793Z,97398.88
2023-03-30T20:20:52.708Z,97408.78
2023-03-30T20:23:20.531Z,97404.75
2023-03-30T20:25:49.577Z,97411.72
2023-03-30T20:28:17.602Z,97405.97
2023-03-30T20:30:45.904Z,97399.09
2023-03-30T20:33:14.911Z,97402.78
2023-03-30T20:35:43.201Z,97404.13
2023-03-30T20:38:11.019Z,97403.94
2023-03-30T20:40:38.744Z,97404.34
2023-03-30T20:43:10.171Z,97399.25
2023-03-30T20:45:46.385Z,97400.97
2023-03-30T20:48:27.362Z,97398.03
2023-03-30T20:50:55.570Z,97402.44
2023-03-30T20:53:23.692Z,97386.91
2023-03-30T20:55:51.748Z,97399.84
2023-03-30T20:58:22.207Z,97399.47
2023-03-30T21:00:52.100Z,97381.78
2023-03-30T21:03:21.415Z,97382.59
2023-03-30T21:05:49.155Z,97377.88
2023-03-30T21:08:17.889Z,97382.03
2023-03-30T21:10:45.596Z,97378.84
2023-03-30T21:13:15.059Z,97380.22
2023-03-30T21:15:42.828Z,97384.75
2023-03-30T21:18:11.324Z,97374.75
2023-03-30T21:20:39.055Z,97367.50
2023-03-30T21:23:10.480Z,97374.03
2023-03-30T21:25:38.257Z,97369.88
2023-03-30T21:28:06.168Z,97368.34
2023-03-30T21:30:34.815Z,97368.41
2023-03-30T21:33:02.638Z,97358.72
2023-03-30T21:35:30.926Z,97371.31
2023-03-30T21:37:58.957Z,97353.78
2023-03-30T21:40:26.746Z,97365.50
2023-03-30T21:42:54.551Z,97360.22
2023-03-30T21:45:22.357Z,97354.59
2023-03-30T21:47:50.365Z,97348.53
2023-03-30T21:50:18.153Z,97341.88
2023-03-30T21:52:48.365Z,97340.81
2023-03-30T21:55:16.137Z,97336.25
2023-03-30T21:57:44.028Z,97328.09
2023-03-30T22:00:13.321Z,97318.63
2023-03-30T22:02:41.235Z,97320.63
2023-03-30T22:05:09.128Z,97319.53
2023-03-30T22:07:36.859Z,97308.44
2023-03-30T22:10:04.815Z,97312.00
2023-03-30T22:12:32.603Z,97303.72
2023-03-30T22:15:00.761Z,97302.69
2023-03-30T22:17:35.390Z,97296.78
2023-03-30T22:20:03.051Z,97293.72
2023-03-30T22:22:32.500Z,97297.88
2023-03-30T22:25:00.314Z,97285.41
2023-03-30T22:27:27.962Z,97293.06
2023-03-30T22:29:55.708Z,97282.94
2023-03-30T22:32:23.424Z,97291.59
2023-03-30T22:34:52.273Z,97292.66
2023-03-30T22:37:19.979Z,97291.19
2023-03-30T22:39:48.183Z,97298.88
2023-03-30T22:42:16.214Z,97295.13
2023-03-30T22:44:43.978Z,97284.97
2023-03-30T22:47:11.952Z,97289.69
2023-03-30T22:49:40.230Z,97284.81
2023-03-30T22:52:07.990Z,97289.28
2023-03-30T22:54:36.216Z,97278.06
2023-03-30T22:57:03.902Z,97283.59
2023-03-30T22:59:31.705Z,97278.94
2023-03-30T23:02:01.035Z,97274.03
2023-03-30T23:04:29.001Z,97269.47
2023-03-30T23:06:56.773Z,97268.78
2023-03-30T23:09:24.550Z,97268.78
2023-03-30T23:11:53.599Z,97263.28
2023-03-30T23:14:21.834Z,97262.97
2023-03-30T23:16:52.016Z,97254.88
2023-03-30T23:19:19.904Z,97262.22
2023-03-30T23:21:47.858Z,97252.97
2023-03-30T23:24:15.602Z,97260.28
2023-03-30T23:26:43.371Z,97250.69
2023-03-30T23:29:11.501Z,97244.47
2023-03-30T23:31:39.228Z,97252.16
2023-03-30T23:34:08.952Z,97247.03
2023-03-30T23:36:36.703Z,97252.44
2023-03-30T23:39:05.492Z,97243.81
2023-03-30T23:41:33.224Z,97257.28
2023-03-30T23:44:01.164Z,97245.97
2023-03-30T23:46:29.829Z,97240.91
2023-03-30T23:48:57.641Z,97241.44
2023-03-30T23:51:25.513Z,97237.34
2023-03-30T23:53:55.112Z,97235.50
2023-03-30T23:56:25.869Z,97231.28
2023-03-30T23:58:53.764Z,97225.63
